Carpe Diem III — FMAV — position and weather

sailwx.info

Track history (hours):
 
Tides and Currents Weather Stations Pressure Air Temp Water Temp Dewpoint Dewpoint Depression Visibility Wind Speed Wind Dir Waves Ship Positions

Carpe Diem III

Last reported at 2017-Sep-10 13:57 UTC. Time now 2017-Sep-23 06:00 UTC.
Position N 47°33' W 002°51'.
Warning: this ship's position is 12 days out of date.

Length 13 m.

Type: Pleasure craft. MMSI: 228191700.

Date/timePositionNaut miles runAvg speedWind from/ knotsBaromVisibWave heightAir tempDewpointWater temp
2017-Sep-10 13:57N 47°33' W 002°51'1 2.8
2017-Sep-10 13:30N 47°34' W 002°52'2 4.3
2017-Sep-10 13:00N 47°36' W 002°51'1 1.1
2017-Sep-10 12:28N 47°36' W 002°51'0 0.0
2017-Sep-10 11:58N 47°36' W 002°51'0 0.0
2017-Sep-10 11:28N 47°36' W 002°51'0 0.0
2017-Sep-10 10:55N 47°36' W 002°51'0 0.0
2017-Sep-10 10:22N 47°36' W 002°51'0 1.2
2017-Sep-10 10:00N 47°36' W 002°51'2 4.4
2017-Sep-10 09:30N 47°35' W 002°53'1 3.0
2017-Sep-10 09:00N 47°34' W 002°55'3 5.2
2017-Sep-10 08:30N 47°36' W 002°57'3 5.3
2017-Sep-10 08:00N 47°39' W 002°58'1 1.9
2017-Sep-10 07:29N 47°39' W 002°59'0 0.0
2017-Sep-10 06:56N 47°39' W 002°59'0 0.0
2017-Sep-09 09:34N 47°39' W 002°59'0 0.0
2017-Sep-09 09:28N 47°39' W 002°59'0 0.0
2017-Sep-09 08:58N 47°39' W 002°59'0 0.0
2017-Sep-09 08:28N 47°39' W 002°59'1 1.7
2017-Sep-09 08:00N 47°39' W 002°58'2 3.3
2017-Sep-09 07:30N 47°37' W 002°57'2 4.9
2017-Sep-09 07:00N 47°35' W 002°56'2 4.6
2017-Sep-09 06:30N 47°34' W 002°53'2 3.1
2017-Sep-09 06:00N 47°33' W 002°51'  
2017-Sep-03 10:00N 47°33' W 002°51'0 0.0
2017-Sep-02 15:43N 47°33' W 002°51'0 0.0
2017-Sep-02 15:28N 47°33' W 002°51'0 0.0
2017-Sep-02 14:58N 47°33' W 002°51'0 0.0
2017-Sep-02 14:28N 47°33' W 002°51'2 3.5
2017-Sep-02 14:00N 47°34' W 002°53'3 6.5
2017-Sep-02 13:30N 47°31' W 002°56'3 5.7
2017-Sep-02 13:00N 47°28' W 002°57'2 4.1
2017-Sep-02 12:30N 47°26' W 002°58'2 3.9
2017-Sep-02 12:00N 47°25' W 002°60'3 6.6
2017-Sep-02 11:29N 47°21' W 003°01'3 6.4
2017-Sep-02 10:59N 47°18' W 003°03'9 0.4
2017-Sep-01 11:00N 47°22' W 003°16'2 0.1
2017-Aug-31 21:00N 47°22' W 003°13'0 0.2
2017-Aug-31 19:52N 47°23' W 003°13'0 0.0
2017-Aug-31 18:13N 47°23' W 003°13'0 0.1
2017-Aug-31 16:27N 47°23' W 003°13'3 6.4
2017-Aug-31 16:00N 47°25' W 003°14'5 9.3
2017-Aug-31 15:30N 47°30' W 003°16'5 9.1
2017-Aug-31 15:00N 47°34' W 003°18'5 9.2
2017-Aug-31 14:30N 47°39' W 003°20'4 8.0
2017-Aug-31 14:00N 47°42' W 003°22'  
Track history (hours):
 
Tides and Currents Weather Stations Pressure Air Temp Water Temp Dewpoint Dewpoint Depression Visibility Wind Speed Wind Dir Waves Ship Positions

Carpe Diem III

Last reported at 2017-Sep-10 13:57 UTC. Time now 2017-Sep-23 06:00 UTC.
Position N 47°33' W 002°51'.
Warning: this ship's position is 12 days out of date.

Length 13 m.

Type: Pleasure craft. MMSI: 228191700.

Date/timePositionNaut miles runAvg speedWind from/ knotsBaromVisibWave heightAir tempDewpointWater temp
2017-Sep-10 13:57N 47°33' W 002°51'1 2.8
2017-Sep-10 13:30N 47°34' W 002°52'2 4.3
2017-Sep-10 13:00N 47°36' W 002°51'1 1.1
2017-Sep-10 12:28N 47°36' W 002°51'0 0.0
2017-Sep-10 11:58N 47°36' W 002°51'0 0.0
2017-Sep-10 11:28N 47°36' W 002°51'0 0.0
2017-Sep-10 10:55N 47°36' W 002°51'0 0.0
2017-Sep-10 10:22N 47°36' W 002°51'0 1.2
2017-Sep-10 10:00N 47°36' W 002°51'2 4.4
2017-Sep-10 09:30N 47°35' W 002°53'1 3.0
2017-Sep-10 09:00N 47°34' W 002°55'3 5.2
2017-Sep-10 08:30N 47°36' W 002°57'3 5.3
2017-Sep-10 08:00N 47°39' W 002°58'1 1.9
2017-Sep-10 07:29N 47°39' W 002°59'0 0.0
2017-Sep-10 06:56N 47°39' W 002°59'0 0.0
2017-Sep-09 09:34N 47°39' W 002°59'0 0.0
2017-Sep-09 09:28N 47°39' W 002°59'0 0.0
2017-Sep-09 08:58N 47°39' W 002°59'0 0.0
2017-Sep-09 08:28N 47°39' W 002°59'1 1.7
2017-Sep-09 08:00N 47°39' W 002°58'2 3.3
2017-Sep-09 07:30N 47°37' W 002°57'2 4.9
2017-Sep-09 07:00N 47°35' W 002°56'2 4.6
2017-Sep-09 06:30N 47°34' W 002°53'2 3.1
2017-Sep-09 06:00N 47°33' W 002°51'  
2017-Sep-03 10:00N 47°33' W 002°51'0 0.0
2017-Sep-02 15:43N 47°33' W 002°51'0 0.0
2017-Sep-02 15:28N 47°33' W 002°51'0 0.0
2017-Sep-02 14:58N 47°33' W 002°51'0 0.0
2017-Sep-02 14:28N 47°33' W 002°51'2 3.5
2017-Sep-02 14:00N 47°34' W 002°53'3 6.5
2017-Sep-02 13:30N 47°31' W 002°56'3 5.7
2017-Sep-02 13:00N 47°28' W 002°57'2 4.1
2017-Sep-02 12:30N 47°26' W 002°58'2 3.9
2017-Sep-02 12:00N 47°25' W 002°60'3 6.6
2017-Sep-02 11:29N 47°21' W 003°01'3 6.4
2017-Sep-02 10:59N 47°18' W 003°03'9 0.4
2017-Sep-01 11:00N 47°22' W 003°16'2 0.1
2017-Aug-31 21:00N 47°22' W 003°13'0 0.2
2017-Aug-31 19:52N 47°23' W 003°13'0 0.0
2017-Aug-31 18:13N 47°23' W 003°13'0 0.1
2017-Aug-31 16:27N 47°23' W 003°13'3 6.4
2017-Aug-31 16:00N 47°25' W 003°14'5 9.3
2017-Aug-31 15:30N 47°30' W 003°16'5 9.1
2017-Aug-31 15:00N 47°34' W 003°18'5 9.2
2017-Aug-31 14:30N 47°39' W 003°20'4 8.0
2017-Aug-31 14:00N 47°42' W 003°22'  

Dump ship's entire track history